Time;durP1;ratioP1;P1;durP2;ratioP2;P2;SDS_P1;SDS_P2;PMS_P1;PMS_P2;Temp;Humidity;BMP_temperature;BMP_pressure;BME280_temperature;BME280_humidity;BME280_pressure;Samples;Min_cycle;Max_cycle;Signal;HPM_P1;HPM_P2
2022/12/16 00:00:30;;;;;;;72.10;40.53;;;;;;;2.10;81.73;94683.06;5049705;28;20123;-69
2022/12/16 00:02:59;;;;;;;73.53;39.58;;;;;;;2.06;81.36;94666.19;5043757;28;20033;-68
2022/12/16 00:05:24;;;;;;;68.20;40.17;;;;;;;2.10;80.90;94662.56;5027961;28;20044;-69
2022/12/16 00:07:50;;;;;;;67.03;36.25;;;;;;;2.12;81.01;94663.31;5042049;28;20040;-69
2022/12/16 00:10:15;;;;;;;60.50;35.95;;;;;;;2.05;81.12;94653.47;5048333;28;20094;-69
2022/12/16 00:12:41;;;;;;;63.88;36.30;;;;;;;2.00;80.67;94656.25;5046720;28;20642;-68
2022/12/16 00:15:06;;;;;;;55.95;32.08;;;;;;;2.07;80.43;94651.66;5048087;28;20029;-69
2022/12/16 00:17:32;;;;;;;49.45;29.08;;;;;;;2.18;80.20;94645.06;5043625;28;20511;-69
2022/12/16 00:19:57;;;;;;;53.08;31.75;;;;;;;2.06;80.12;94645.69;5013649;28;20052;-69
2022/12/16 00:22:23;;;;;;;51.60;30.52;;;;;;;1.84;80.92;94646.00;5028566;28;20029;-70
2022/12/16 00:24:48;;;;;;;51.25;27.95;;;;;;;1.99;81.08;94647.75;5031918;28;20487;-69
2022/12/16 00:27:14;;;;;;;53.08;30.80;;;;;;;1.92;81.10;94640.44;5043847;28;20487;-69
2022/12/16 00:29:39;;;;;;;49.90;29.95;;;;;;;1.97;81.04;94646.16;5043485;28;20033;-69
2022/12/16 00:32:05;;;;;;;93.18;52.50;;;;;;;1.83;81.22;94633.25;5038410;28;20033;-69
2022/12/16 00:34:30;;;;;;;85.25;48.45;;;;;;;1.93;81.24;94647.25;5036344;28;20038;-69
2022/12/16 00:36:56;;;;;;;76.22;43.15;;;;;;;1.98;81.24;94637.59;5030157;28;20034;-69
2022/12/16 00:39:21;;;;;;;66.72;39.97;;;;;;;2.17;81.06;94651.09;5032516;28;20522;-70
2022/12/16 00:41:47;;;;;;;76.35;42.42;;;;;;;2.13;80.68;94654.72;5031504;28;20424;-69
2022/12/16 00:44:12;;;;;;;78.93;42.78;;;;;;;2.00;81.70;94641.69;5045623;28;20025;-69
2022/12/16 00:46:38;;;;;;;93.95;51.33;;;;;;;2.01;81.43;94655.38;5033742;28;20476;-69
2022/12/16 00:49:04;;;;;;;84.05;47.85;;;;;;;2.01;81.43;94656.19;5046606;28;20029;-69
2022/12/16 00:51:29;;;;;;;75.65;45.78;;;;;;;2.12;81.68;94632.56;5034702;28;20533;-69
2022/12/16 00:53:55;;;;;;;85.38;45.13;;;;;;;2.12;81.61;94649.69;5052432;28;20051;-69
2022/12/16 00:56:20;;;;;;;83.53;42.25;;;;;;;1.97;81.94;94620.53;5051369;28;21418;-69
2022/12/16 00:58:46;;;;;;;78.93;43.25;;;;;;;2.04;82.75;94621.88;5049750;28;20094;-69
2022/12/16 01:01:12;;;;;;;88.50;45.67;;;;;;;2.10;83.18;94631.81;5040666;28;20056;-69
2022/12/16 01:03:37;;;;;;;120.63;51.47;;;;;;;2.18;82.90;94624.53;5014749;28;20039;-69
2022/12/16 01:06:10;;;;;;;155.38;65.30;;;;;;;2.25;82.66;94640.41;4998154;28;20107;-69
2022/12/16 01:08:36;;;;;;;136.50;59.28;;;;;;;2.28;82.54;94635.13;5047169;28;20033;-69
2022/12/16 01:11:01;;;;;;;165.23;72.60;;;;;;;2.28;82.44;94636.88;5034362;28;20037;-69
2022/12/16 01:13:27;;;;;;;125.13;62.10;;;;;;;2.19;82.42;94626.19;5034271;28;20033;-69
2022/12/16 01:15:52;;;;;;;130.85;63.38;;;;;;;2.06;82.59;94608.97;5045605;28;20479;-69
2022/12/16 01:18:18;;;;;;;158.57;67.03;;;;;;;2.29;82.66;94618.84;5031785;28;20553;-69
2022/12/16 01:20:43;;;;;;;115.43;57.50;;;;;;;2.21;82.72;94632.06;5014399;28;20423;-69
2022/12/16 01:23:09;;;;;;;114.80;56.35;;;;;;;2.31;83.02;94639.25;5030680;28;20381;-69
2022/12/16 01:25:34;;;;;;;118.80;61.53;;;;;;;2.37;83.39;94649.22;5044879;28;20048;-69
2022/12/16 01:27:59;;;;;;;142.95;72.65;;;;;;;2.26;83.28;94641.25;5050491;28;20033;-69
2022/12/16 01:30:25;;;;;;;170.80;75.50;;;;;;;1.98;83.97;94627.34;5032975;28;20041;-69
2022/12/16 01:32:50;;;;;;;156.07;69.10;;;;;;;2.20;84.28;94632.13;5031716;28;20037;-69
2022/12/16 01:35:16;;;;;;;113.03;54.70;;;;;;;2.17;84.77;94622.91;5031114;28;20030;-69
2022/12/16 01:37:41;;;;;;;96.63;49.05;;;;;;;2.11;84.78;94617.25;5030588;28;20415;-69
2022/12/16 01:40:09;;;;;;;93.22;48.63;;;;;;;2.26;84.67;94639.53;5039429;28;20029;-70
2022/12/16 01:42:34;;;;;;;96.22;48.88;;;;;;;2.19;84.76;94628.75;5048868;28;20028;-69
2022/12/16 01:45:27;;;;;;;99.00;48.47;;;;;;;2.35;84.53;94630.53;5040441;28;20044;-69
2022/12/16 01:47:52;;;;;;;110.93;54.80;;;;;;;2.29;84.82;94615.47;5040961;28;20044;-69
2022/12/16 01:50:18;;;;;;;89.45;46.00;;;;;;;2.38;84.81;94607.28;5014043;28;20551;-69
2022/12/16 01:52:49;;;;;;;80.93;38.28;;;;;;;2.43;84.68;94605.28;5031619;28;20034;-70
2022/12/16 01:55:17;;;;;;;70.05;38.30;;;;;;;2.42;84.22;94607.03;5031924;28;20072;-70
2022/12/16 01:57:54;;;;;;;64.55;36.10;;;;;;;2.52;84.15;94607.34;5014334;28;20061;-69
2022/12/16 02:00:19;;;;;;;59.97;33.58;;;;;;;2.55;83.77;94612.31;4998087;28;20095;-69
2022/12/16 02:02:45;;;;;;;66.05;33.85;;;;;;;2.59;83.91;94618.94;5033361;28;20024;-70
2022/12/16 02:05:19;;;;;;;61.95;33.38;;;;;;;2.65;83.86;94628.84;5017116;28;20045;-69
2022/12/16 02:08:10;;;;;;;58.03;30.33;;;;;;;2.68;83.92;94636.38;5038136;28;20036;-69
2022/12/16 02:10:42;;;;;;;61.25;29.38;;;;;;;2.49;84.15;94610.09;5031488;28;20037;-70
2022/12/16 02:13:16;;;;;;;43.70;25.23;;;;;;;2.60;84.44;94594.94;5031295;28;20034;-69
2022/12/16 02:16:01;;;;;;;50.30;28.40;;;;;;;2.58;84.25;94577.97;5031090;28;20056;-69
2022/12/16 02:18:56;;;;;;;46.78;26.50;;;;;;;2.60;83.88;94584.69;5029407;28;20036;-69
2022/12/16 02:21:26;;;;;;;46.58;26.75;;;;;;;2.69;83.34;94586.72;5031071;28;20072;-70
2022/12/16 02:24:29;;;;;;;46.47;28.23;;;;;;;2.72;83.40;94566.94;5031252;28;20030;-69
2022/12/16 02:27:16;;;;;;;44.70;25.92;;;;;;;2.80;82.68;94577.59;5031343;28;20076;-69
2022/12/16 02:30:06;;;;;;;46.28;27.52;;;;;;;2.74;82.80;94594.16;5031112;28;20060;-70
2022/12/16 02:33:05;;;;;;;41.88;26.33;;;;;;;2.68;82.77;94571.44;5047267;28;20047;-69
2022/12/16 02:35:47;;;;;;;40.15;24.35;;;;;;;2.65;83.17;94574.16;5049874;28;20025;-70
2022/12/16 02:38:22;;;;;;;43.10;24.65;;;;;;;2.67;82.68;94577.47;5049965;28;20418;-69
2022/12/16 02:41:10;;;;;;;44.55;25.58;;;;;;;2.58;83.07;94575.41;5049514;28;20033;-70
2022/12/16 02:43:49;;;;;;;43.65;25.92;;;;;;;2.56;82.66;94588.31;5033678;28;20035;-69
2022/12/16 02:46:15;;;;;;;39.38;23.92;;;;;;;2.49;82.95;94575.94;5048066;28;20056;-69
2022/12/16 02:48:41;;;;;;;40.10;24.30;;;;;;;2.26;82.39;94559.22;5014728;28;20396;-69
2022/12/16 02:51:06;;;;;;;41.95;25.90;;;;;;;2.37;82.61;94603.88;5029534;28;20048;-70
2022/12/16 02:53:34;;;;;;;46.03;26.23;;;;;;;2.27;83.48;94591.66;5029782;28;20411;-69
2022/12/16 02:56:05;;;;;;;44.20;27.13;;;;;;;2.41;83.74;94622.50;5025573;28;20029;-69
2022/12/16 02:58:46;;;;;;;39.00;23.25;;;;;;;2.41;84.23;94619.94;5049369;28;20152;-69
2022/12/16 03:01:28;;;;;;;39.38;22.45;;;;;;;2.58;83.83;94639.53;5050529;28;20037;-69
2022/12/16 03:04:02;;;;;;;41.08;23.40;;;;;;;2.51;84.15;94620.25;5049651;28;20441;-69
2022/12/16 03:06:29;;;;;;;48.78;25.42;;;;;;;2.63;84.38;94629.84;5049428;28;20151;-69
2022/12/16 03:08:56;;;;;;;47.45;25.67;;;;;;;2.64;84.71;94632.31;5049526;28;20033;-70
2022/12/16 03:11:21;;;;;;;49.75;26.20;;;;;;;2.58;84.55;94616.44;5018358;28;20039;-69
2022/12/16 03:13:50;;;;;;;53.63;27.08;;;;;;;2.73;85.09;94640.41;5012967;28;20416;-69
2022/12/16 03:16:17;;;;;;;50.70;26.85;;;;;;;2.81;84.71;94630.56;5013959;28;20045;-70
2022/12/16 03:18:43;;;;;;;51.58;27.20;;;;;;;2.83;85.14;94610.78;5013084;28;20030;-70
2022/12/16 03:21:09;;;;;;;57.00;28.23;;;;;;;2.78;85.37;94597.38;5029553;28;20036;-69
2022/12/16 03:23:47;;;;;;;54.22;26.95;;;;;;;2.81;85.78;94620.31;5012971;28;20030;-71
2022/12/16 03:26:22;;;;;;;56.70;29.98;;;;;;;2.68;85.91;94571.44;5030256;28;20029;-69
2022/12/16 03:28:51;;;;;;;50.35;27.00;;;;;;;2.89;85.60;94590.72;4996266;28;20040;-70
2022/12/16 03:31:40;;;;;;;53.53;28.38;;;;;;;2.93;85.34;94582.88;5028752;28;20561;-69
2022/12/16 03:34:15;;;;;;;43.22;26.20;;;;;;;2.97;84.98;94585.19;5053864;28;20032;-69
2022/12/16 03:36:40;;;;;;;48.70;27.33;;;;;;;2.99;84.89;94577.41;5054367;28;20458;-70
2022/12/16 03:39:06;;;;;;;48.00;27.90;;;;;;;3.05;84.18;94592.44;5027835;28;20032;-70
2022/12/16 03:41:31;;;;;;;48.35;27.10;;;;;;;2.99;84.30;94583.34;5016414;28;20052;-69
2022/12/16 03:43:57;;;;;;;43.95;25.80;;;;;;;3.09;83.32;94557.97;5032619;28;20095;-70
2022/12/16 03:46:22;;;;;;;50.45;29.98;;;;;;;3.01;83.40;94562.72;5026768;28;20087;-69
2022/12/16 03:48:48;;;;;;;42.53;25.90;;;;;;;3.07;82.95;94570.91;5032623;28;20033;-69
2022/12/16 03:51:14;;;;;;;58.17;32.88;;;;;;;3.01;83.22;94585.81;5017020;28;20116;-69
2022/12/16 03:53:40;;;;;;;66.45;39.60;;;;;;;3.02;83.35;94590.88;5037153;28;20104;-69
2022/12/16 03:56:06;;;;;;;63.50;39.47;;;;;;;3.06;83.20;94632.59;5052321;28;20037;-69
2022/12/16 03:58:34;;;;;;;75.78;39.78;;;;;;;2.98;83.58;94635.59;5035376;28;20139;-69
2022/12/16 04:00:59;;;;;;;67.13;36.17;;;;;;;2.78;84.02;94623.03;5034192;28;20095;-69
2022/12/16 04:07:18;;;;;;;;;;;;;;;3.04;83.79;94649.84;5034095;28;20053;-70
2022/12/16 04:09:32;;;;;;;60.97;34.47;;;;;;;2.96;83.74;94624.59;5039634;28;19923;-69
2022/12/16 04:25:42;;;;;;;63.15;30.05;;;;;;;2.85;85.41;94632.88;5036653;28;20091;-71
2022/12/16 04:28:07;;;;;;;63.10;32.90;;;;;;;2.90;85.65;94627.50;5031759;28;20029;-70
2022/12/16 04:30:35;;;;;;;57.35;29.45;;;;;;;2.94;85.52;94616.16;5045037;28;20028;-70
